sensor_id;sensor_type;location;lat;lon;timestamp;temperature;humidity
21518;DHT22;61765;45.794;24.150;2024-02-14T00:02:32;11.40;90.50
21518;DHT22;61765;45.794;24.150;2024-02-14T00:10:41;11.50;90.70
21518;DHT22;61765;45.794;24.150;2024-02-14T00:18:47;11.30;90.30
21518;DHT22;61765;45.794;24.150;2024-02-14T00:26:56;11.30;90.80
21518;DHT22;61765;45.794;24.150;2024-02-14T00:35:04;11.40;90.60
21518;DHT22;61765;45.794;24.150;2024-02-14T00:43:13;11.30;90.50
21518;DHT22;61765;45.794;24.150;2024-02-14T00:51:18;11.30;90.70
21518;DHT22;61765;45.794;24.150;2024-02-14T00:59:27;11.30;90.40
21518;DHT22;61765;45.794;24.150;2024-02-14T01:07:33;11.50;90.70
21518;DHT22;61765;45.794;24.150;2024-02-14T01:15:41;11.40;90.50
21518;DHT22;61765;45.794;24.150;2024-02-14T01:23:47;11.40;90.30
21518;DHT22;61765;45.794;24.150;2024-02-14T01:31:56;11.20;90.40
21518;DHT22;61765;45.794;24.150;2024-02-14T01:40:02;11.20;90.70
21518;DHT22;61765;45.794;24.150;2024-02-14T01:48:12;11.40;90.50
21518;DHT22;61765;45.794;24.150;2024-02-14T01:56:22;11.40;90.20
21518;DHT22;61765;45.794;24.150;2024-02-14T02:04:30;11.30;90.30
21518;DHT22;61765;45.794;24.150;2024-02-14T02:12:36;11.10;90.40
21518;DHT22;61765;45.794;24.150;2024-02-14T02:20:44;11.00;91.00
21518;DHT22;61765;45.794;24.150;2024-02-14T02:28:53;10.90;91.10
21518;DHT22;61765;45.794;24.150;2024-02-14T02:36:59;10.90;91.30
21518;DHT22;61765;45.794;24.150;2024-02-14T02:45:08;10.90;91.20
21518;DHT22;61765;45.794;24.150;2024-02-14T02:53:14;10.80;91.00
21518;DHT22;61765;45.794;24.150;2024-02-14T03:01:22;11.00;91.00
21518;DHT22;61765;45.794;24.150;2024-02-14T03:09:33;11.20;90.60
21518;DHT22;61765;45.794;24.150;2024-02-14T03:17:41;11.20;90.50
21518;DHT22;61765;45.794;24.150;2024-02-14T03:25:48;11.20;90.70
21518;DHT22;61765;45.794;24.150;2024-02-14T03:33:57;11.20;90.80
21518;DHT22;61765;45.794;24.150;2024-02-14T03:42:03;11.10;90.80
21518;DHT22;61765;45.794;24.150;2024-02-14T03:50:13;11.10;90.80
21518;DHT22;61765;45.794;24.150;2024-02-14T03:58:18;11.10;91.10
21518;DHT22;61765;45.794;24.150;2024-02-14T04:06:28;11.00;91.00
21518;DHT22;61765;45.794;24.150;2024-02-14T04:14:34;10.90;90.90
21518;DHT22;61765;45.794;24.150;2024-02-14T04:22:43;10.90;91.00
21518;DHT22;61765;45.794;24.150;2024-02-14T04:30:49;11.10;90.90
21518;DHT22;61765;45.794;24.150;2024-02-14T04:38:58;11.20;90.80
21518;DHT22;61765;45.794;24.150;2024-02-14T04:47:05;11.20;90.40
21518;DHT22;61765;45.794;24.150;2024-02-14T04:55:15;11.10;90.70
21518;DHT22;61765;45.794;24.150;2024-02-14T05:03:21;11.10;90.60
21518;DHT22;61765;45.794;24.150;2024-02-14T05:11:31;11.20;90.60
21518;DHT22;61765;45.794;24.150;2024-02-14T05:19:37;11.20;90.50
21518;DHT22;61765;45.794;24.150;2024-02-14T05:27:45;11.10;90.50
21518;DHT22;61765;45.794;24.150;2024-02-14T05:35:52;11.00;90.10
21518;DHT22;61765;45.794;24.150;2024-02-14T05:44:00;11.00;90.40
21518;DHT22;61765;45.794;24.150;2024-02-14T05:52:07;11.00;90.50
21518;DHT22;61765;45.794;24.150;2024-02-14T06:00:16;11.10;90.20
21518;DHT22;61765;45.794;24.150;2024-02-14T06:08:25;11.00;90.20
21518;DHT22;61765;45.794;24.150;2024-02-14T06:16:33;11.10;90.00
21518;DHT22;61765;45.794;24.150;2024-02-14T06:24:39;11.40;90.00
21518;DHT22;61765;45.794;24.150;2024-02-14T06:32:48;11.40;90.20
21518;DHT22;61765;45.794;24.150;2024-02-14T06:40:54;11.10;90.50
21518;DHT22;61765;45.794;24.150;2024-02-14T06:49:02;11.40;90.20
21518;DHT22;61765;45.794;24.150;2024-02-14T06:57:08;11.60;89.30
21518;DHT22;61765;45.794;24.150;2024-02-14T07:05:16;11.40;89.70
21518;DHT22;61765;45.794;24.150;2024-02-14T07:13:23;11.50;89.80
21518;DHT22;61765;45.794;24.150;2024-02-14T07:21:31;11.50;89.60
21518;DHT22;61765;45.794;24.150;2024-02-14T07:29:37;11.90;90.00
21518;DHT22;61765;45.794;24.150;2024-02-14T07:37:48;12.30;89.00
21518;DHT22;61765;45.794;24.150;2024-02-14T07:45:53;12.30;88.20
21518;DHT22;61765;45.794;24.150;2024-02-14T07:54:02;12.40;88.00
21518;DHT22;61765;45.794;24.150;2024-02-14T08:02:08;12.70;87.70
21518;DHT22;61765;45.794;24.150;2024-02-14T08:10:16;12.90;87.40
21518;DHT22;61765;45.794;24.150;2024-02-14T08:18:22;12.80;87.10
21518;DHT22;61765;45.794;24.150;2024-02-14T08:26:32;12.90;86.60
21518;DHT22;61765;45.794;24.150;2024-02-14T08:34:38;13.20;86.30
21518;DHT22;61765;45.794;24.150;2024-02-14T08:42:46;13.30;86.40
21518;DHT22;61765;45.794;24.150;2024-02-14T08:50:53;13.30;86.20
21518;DHT22;61765;45.794;24.150;2024-02-14T08:59:02;13.40;85.60
21518;DHT22;61765;45.794;24.150;2024-02-14T09:07:09;13.60;83.70
21518;DHT22;61765;45.794;24.150;2024-02-14T09:15:18;13.10;83.90
21518;DHT22;61765;45.794;24.150;2024-02-14T09:23:25;13.50;84.00
21518;DHT22;61765;45.794;24.150;2024-02-14T09:31:34;13.70;82.40
21518;DHT22;61765;45.794;24.150;2024-02-14T09:39:39;13.90;81.00
21518;DHT22;61765;45.794;24.150;2024-02-14T09:47:49;13.90;80.50
21518;DHT22;61765;45.794;24.150;2024-02-14T09:55:55;13.60;80.60
21518;DHT22;61765;45.794;24.150;2024-02-14T10:04:03;13.60;79.30
21518;DHT22;61765;45.794;24.150;2024-02-14T10:12:09;13.60;80.10
21518;DHT22;61765;45.794;24.150;2024-02-14T10:20:20;13.30;80.00
21518;DHT22;61765;45.794;24.150;2024-02-14T10:28:25;13.30;80.70
21518;DHT22;61765;45.794;24.150;2024-02-14T10:36:48;13.30;81.00
21518;DHT22;61765;45.794;24.150;2024-02-14T10:44:55;13.10;80.40
21518;DHT22;61765;45.794;24.150;2024-02-14T10:53:04;13.10;81.00
21518;DHT22;61765;45.794;24.150;2024-02-14T11:01:11;13.10;80.70
21518;DHT22;61765;45.794;24.150;2024-02-14T11:09:20;13.00;80.80
21518;DHT22;61765;45.794;24.150;2024-02-14T11:17:25;13.50;80.20
21518;DHT22;61765;45.794;24.150;2024-02-14T11:25:34;13.50;79.70
21518;DHT22;61765;45.794;24.150;2024-02-14T11:33:40;13.20;80.20
21518;DHT22;61765;45.794;24.150;2024-02-14T11:41:51;13.40;80.00
21518;DHT22;61765;45.794;24.150;2024-02-14T11:49:58;13.60;79.40
21518;DHT22;61765;45.794;24.150;2024-02-14T11:58:11;13.50;78.30
21518;DHT22;61765;45.794;24.150;2024-02-14T12:06:18;13.90;78.30
21518;DHT22;61765;45.794;24.150;2024-02-14T12:14:29;14.00;77.90
21518;DHT22;61765;45.794;24.150;2024-02-14T12:22:35;14.10;77.10
21518;DHT22;61765;45.794;24.150;2024-02-14T12:30:48;14.40;76.60
21518;DHT22;61765;45.794;24.150;2024-02-14T12:38:59;14.40;75.50
21518;DHT22;61765;45.794;24.150;2024-02-14T12:47:08;14.50;76.00
21518;DHT22;61765;45.794;24.150;2024-02-14T12:55:14;14.50;75.20
21518;DHT22;61765;45.794;24.150;2024-02-14T13:03:23;14.40;74.90
21518;DHT22;61765;45.794;24.150;2024-02-14T13:11:29;14.60;75.40
21518;DHT22;61765;45.794;24.150;2024-02-14T13:19:38;15.00;74.80
21518;DHT22;61765;45.794;24.150;2024-02-14T13:27:46;14.80;74.20
21518;DHT22;61765;45.794;24.150;2024-02-14T13:35:55;14.80;74.60
21518;DHT22;61765;45.794;24.150;2024-02-14T13:44:00;14.70;74.20
21518;DHT22;61765;45.794;24.150;2024-02-14T13:52:09;14.50;74.50
21518;DHT22;61765;45.794;24.150;2024-02-14T14:00:14;14.50;74.00
21518;DHT22;61765;45.794;24.150;2024-02-14T14:08:23;14.40;74.20
21518;DHT22;61765;45.794;24.150;2024-02-14T14:16:28;14.30;73.70
21518;DHT22;61765;45.794;24.150;2024-02-14T14:24:38;14.00;74.50
21518;DHT22;61765;45.794;24.150;2024-02-14T14:32:43;13.70;74.90
21518;DHT22;61765;45.794;24.150;2024-02-14T14:40:51;13.40;75.40
21518;DHT22;61765;45.794;24.150;2024-02-14T14:48:58;13.40;75.60
21518;DHT22;61765;45.794;24.150;2024-02-14T14:57:07;13.40;76.30
21518;DHT22;61765;45.794;24.150;2024-02-14T15:05:17;13.60;76.40
21518;DHT22;61765;45.794;24.150;2024-02-14T15:13:25;13.30;76.50
21518;DHT22;61765;45.794;24.150;2024-02-14T15:21:31;13.30;76.80
21518;DHT22;61765;45.794;24.150;2024-02-14T15:29:39;13.30;77.00
21518;DHT22;61765;45.794;24.150;2024-02-14T15:37:57;13.10;77.20
21518;DHT22;61765;45.794;24.150;2024-02-14T15:46:06;13.10;77.20
21518;DHT22;61765;45.794;24.150;2024-02-14T15:54:11;13.10;76.90
21518;DHT22;61765;45.794;24.150;2024-02-14T16:02:20;13.00;76.60
21518;DHT22;61765;45.794;24.150;2024-02-14T16:10:27;12.90;77.30
21518;DHT22;61765;45.794;24.150;2024-02-14T16:18:37;13.10;76.70
21518;DHT22;61765;45.794;24.150;2024-02-14T16:26:43;13.00;79.50
21518;DHT22;61765;45.794;24.150;2024-02-14T16:34:52;13.00;81.80
21518;DHT22;61765;45.794;24.150;2024-02-14T16:42:57;12.50;83.20
21518;DHT22;61765;45.794;24.150;2024-02-14T16:51:06;12.40;83.90
21518;DHT22;61765;45.794;24.150;2024-02-14T16:59:20;12.40;83.90
21518;DHT22;61765;45.794;24.150;2024-02-14T17:07:29;12.50;84.00
21518;DHT22;61765;45.794;24.150;2024-02-14T17:15:35;12.60;83.20
21518;DHT22;61765;45.794;24.150;2024-02-14T17:23:43;12.60;79.40
21518;DHT22;61765;45.794;24.150;2024-02-14T17:31:49;12.50;81.90
21518;DHT22;61765;45.794;24.150;2024-02-14T17:39:58;12.40;84.10
21518;DHT22;61765;45.794;24.150;2024-02-14T17:48:04;12.30;84.60
21518;DHT22;61765;45.794;24.150;2024-02-14T17:56:13;12.30;84.90
21518;DHT22;61765;45.794;24.150;2024-02-14T18:04:19;12.30;83.20
21518;DHT22;61765;45.794;24.150;2024-02-14T18:12:29;12.40;82.50
21518;DHT22;61765;45.794;24.150;2024-02-14T18:20:36;12.50;81.60
21518;DHT22;61765;45.794;24.150;2024-02-14T18:28:45;12.30;79.50
21518;DHT22;61765;45.794;24.150;2024-02-14T18:36:50;12.40;79.60
21518;DHT22;61765;45.794;24.150;2024-02-14T18:44:59;12.30;78.70
21518;DHT22;61765;45.794;24.150;2024-02-14T18:53:05;12.40;78.40
21518;DHT22;61765;45.794;24.150;2024-02-14T19:01:20;12.40;78.10
21518;DHT22;61765;45.794;24.150;2024-02-14T19:09:28;12.10;76.10
21518;DHT22;61765;45.794;24.150;2024-02-14T19:17:36;12.30;76.00
21518;DHT22;61765;45.794;24.150;2024-02-14T19:25:43;12.10;74.70
21518;DHT22;61765;45.794;24.150;2024-02-14T19:33:52;12.00;74.30
21518;DHT22;61765;45.794;24.150;2024-02-14T19:41:58;12.10;74.60
21518;DHT22;61765;45.794;24.150;2024-02-14T19:50:08;12.10;73.50
21518;DHT22;61765;45.794;24.150;2024-02-14T19:58:15;12.20;72.40
21518;DHT22;61765;45.794;24.150;2024-02-14T20:06:25;12.30;71.70
21518;DHT22;61765;45.794;24.150;2024-02-14T20:14:31;12.10;70.70
21518;DHT22;61765;45.794;24.150;2024-02-14T20:31:38;12.00;72.00
21518;DHT22;61765;45.794;24.150;2024-02-14T20:40:08;12.30;74.80
21518;DHT22;61765;45.794;24.150;2024-02-14T20:48:18;12.30;74.70
21518;DHT22;61765;45.794;24.150;2024-02-14T20:56:24;11.80;75.60
21518;DHT22;61765;45.794;24.150;2024-02-14T21:04:33;12.00;75.90
21518;DHT22;61765;45.794;24.150;2024-02-14T21:12:39;12.20;75.60
21518;DHT22;61765;45.794;24.150;2024-02-14T21:20:47;12.10;75.40
21518;DHT22;61765;45.794;24.150;2024-02-14T21:28:53;12.00;75.80
21518;DHT22;61765;45.794;24.150;2024-02-14T21:37:02;12.10;75.00
21518;DHT22;61765;45.794;24.150;2024-02-14T21:45:09;12.10;75.20
21518;DHT22;61765;45.794;24.150;2024-02-14T21:53:17;12.00;75.70
21518;DHT22;61765;45.794;24.150;2024-02-14T22:01:23;11.90;75.80
21518;DHT22;61765;45.794;24.150;2024-02-14T22:09:32;12.00;76.00
21518;DHT22;61765;45.794;24.150;2024-02-14T22:17:39;11.80;76.20
21518;DHT22;61765;45.794;24.150;2024-02-14T22:25:48;11.80;76.40
21518;DHT22;61765;45.794;24.150;2024-02-14T22:33:54;11.70;76.80
21518;DHT22;61765;45.794;24.150;2024-02-14T22:42:02;11.60;78.00
21518;DHT22;61765;45.794;24.150;2024-02-14T22:50:10;11.70;78.30
21518;DHT22;61765;45.794;24.150;2024-02-14T22:58:18;11.60;78.80
21518;DHT22;61765;45.794;24.150;2024-02-14T23:06:24;11.90;79.00
21518;DHT22;61765;45.794;24.150;2024-02-14T23:14:35;11.70;78.90
21518;DHT22;61765;45.794;24.150;2024-02-14T23:22:41;11.60;79.60
21518;DHT22;61765;45.794;24.150;2024-02-14T23:30:50;11.30;80.30
21518;DHT22;61765;45.794;24.150;2024-02-14T23:38:58;11.20;78.90
21518;DHT22;61765;45.794;24.150;2024-02-14T23:47:07;11.30;78.90
21518;DHT22;61765;45.794;24.150;2024-02-14T23:55:13;11.40;78.00
